sensor_id;sensor_type;location;lat;lon;timestamp;pressure;altitude;pressure_sealevel;temperature;humidity
78411;BME280;67706;51.074;-1.796;2023-11-21T00:00:09;101103.84;;;9.74;100.00
78411;BME280;67706;51.074;-1.796;2023-11-21T00:02:37;101107.47;;;9.66;100.00
78411;BME280;67706;51.074;-1.796;2023-11-21T00:05:06;101107.38;;;9.59;100.00
78411;BME280;67706;51.074;-1.796;2023-11-21T00:07:35;101113.22;;;9.56;100.00
78411;BME280;67706;51.074;-1.796;2023-11-21T00:10:01;101123.59;;;9.46;100.00
78411;BME280;67706;51.074;-1.796;2023-11-21T00:12:30;101116.41;;;9.45;100.00
78411;BME280;67706;51.074;-1.796;2023-11-21T00:14:57;101123.47;;;9.40;100.00
78411;BME280;67706;51.074;-1.796;2023-11-21T00:17:24;101127.22;;;9.39;100.00
78411;BME280;67706;51.074;-1.796;2023-11-21T00:19:51;101118.66;;;9.42;100.00
78411;BME280;67706;51.074;-1.796;2023-11-21T00:22:17;101124.53;;;9.53;100.00
78411;BME280;67706;51.074;-1.796;2023-11-21T00:24:46;101120.47;;;9.49;100.00
78411;BME280;67706;51.074;-1.796;2023-11-21T00:27:13;101131.72;;;9.54;100.00
78411;BME280;67706;51.074;-1.796;2023-11-21T00:29:40;101116.31;;;9.53;100.00
78411;BME280;67706;51.074;-1.796;2023-11-21T00:32:07;101117.06;;;9.47;100.00
78411;BME280;67706;51.074;-1.796;2023-11-21T00:34:34;101121.00;;;9.45;100.00
78411;BME280;67706;51.074;-1.796;2023-11-21T00:37:01;101121.00;;;9.45;100.00
78411;BME280;67706;51.074;-1.796;2023-11-21T00:39:28;101122.63;;;9.39;100.00
78411;BME280;67706;51.074;-1.796;2023-11-21T00:41:56;101128.56;;;9.43;100.00
78411;BME280;67706;51.074;-1.796;2023-11-21T00:44:23;101127.09;;;9.32;100.00
78411;BME280;67706;51.074;-1.796;2023-11-21T00:46:49;101133.19;;;9.20;100.00
78411;BME280;67706;51.074;-1.796;2023-11-21T00:49:16;101133.03;;;9.21;100.00
78411;BME280;67706;51.074;-1.796;2023-11-21T00:51:43;101140.72;;;9.18;100.00
78411;BME280;67706;51.074;-1.796;2023-11-21T00:54:09;101142.56;;;9.25;100.00
78411;BME280;67706;51.074;-1.796;2023-11-21T00:56:36;101139.53;;;9.20;100.00
78411;BME280;67706;51.074;-1.796;2023-11-21T00:59:04;101148.06;;;9.25;100.00
78411;BME280;67706;51.074;-1.796;2023-11-21T01:01:31;101142.56;;;9.25;100.00
78411;BME280;67706;51.074;-1.796;2023-11-21T01:03:57;101148.28;;;9.38;100.00
78411;BME280;67706;51.074;-1.796;2023-11-21T01:06:24;101144.09;;;9.28;100.00
78411;BME280;67706;51.074;-1.796;2023-11-21T01:08:51;101154.13;;;9.35;100.00
78411;BME280;67706;51.074;-1.796;2023-11-21T01:11:17;101150.00;;;9.39;100.00
78411;BME280;67706;51.074;-1.796;2023-11-21T01:13:45;101155.81;;;9.36;100.00
78411;BME280;67706;51.074;-1.796;2023-11-21T01:16:13;101163.22;;;9.36;100.00
78411;BME280;67706;51.074;-1.796;2023-11-21T01:18:40;101158.22;;;9.39;100.00
78411;BME280;67706;51.074;-1.796;2023-11-21T01:21:06;101155.81;;;9.36;100.00
78411;BME280;67706;51.074;-1.796;2023-11-21T01:23:34;101169.81;;;9.41;100.00
78411;BME280;67706;51.074;-1.796;2023-11-21T01:26:01;101177.72;;;9.36;100.00
78411;BME280;67706;51.074;-1.796;2023-11-21T01:28:28;101179.91;;;9.41;100.00
78411;BME280;67706;51.074;-1.796;2023-11-21T01:30:55;101174.28;;;9.42;100.00
78411;BME280;67706;51.074;-1.796;2023-11-21T01:33:23;101178.03;;;9.41;100.00
78411;BME280;67706;51.074;-1.796;2023-11-21T01:35:50;101177.03;;;9.42;100.00
78411;BME280;67706;51.074;-1.796;2023-11-21T01:38:18;101183.88;;;9.38;100.00
78411;BME280;67706;51.074;-1.796;2023-11-21T01:40:45;101188.50;;;9.38;100.00
78411;BME280;67706;51.074;-1.796;2023-11-21T01:43:11;101187.31;;;9.40;100.00
78411;BME280;67706;51.074;-1.796;2023-11-21T01:45:38;101200.63;;;9.43;100.00
78411;BME280;67706;51.074;-1.796;2023-11-21T01:48:05;101196.00;;;9.44;100.00
78411;BME280;67706;51.074;-1.796;2023-11-21T01:50:33;101209.88;;;9.42;100.00
78411;BME280;67706;51.074;-1.796;2023-11-21T01:53:01;101216.84;;;9.45;100.00
78411;BME280;67706;51.074;-1.796;2023-11-21T01:55:28;101217.72;;;9.45;100.00
78411;BME280;67706;51.074;-1.796;2023-11-21T01:57:56;101223.19;;;9.45;100.00
78411;BME280;67706;51.074;-1.796;2023-11-21T02:00:23;101224.91;;;9.46;100.00
78411;BME280;67706;51.074;-1.796;2023-11-21T02:02:51;101231.78;;;9.42;100.00
78411;BME280;67706;51.074;-1.796;2023-11-21T02:05:19;101224.53;;;9.49;100.00
78411;BME280;67706;51.074;-1.796;2023-11-21T02:07:48;101230.00;;;9.49;100.00
78411;BME280;67706;51.074;-1.796;2023-11-21T02:10:15;101237.34;;;9.57;100.00
78411;BME280;67706;51.074;-1.796;2023-11-21T02:12:44;101236.47;;;9.56;100.00
78411;BME280;67706;51.074;-1.796;2023-11-21T02:15:12;101245.03;;;9.53;100.00
78411;BME280;67706;51.074;-1.796;2023-11-21T02:17:42;101246.91;;;9.53;100.00
78411;BME280;67706;51.074;-1.796;2023-11-21T02:20:10;101254.78;;;9.56;100.00
78411;BME280;67706;51.074;-1.796;2023-11-21T02:22:41;101253.63;;;9.50;100.00
78411;BME280;67706;51.074;-1.796;2023-11-21T02:25:09;101266.00;;;9.46;100.00
78411;BME280;67706;51.074;-1.796;2023-11-21T02:27:36;101264.94;;;9.47;100.00
78411;BME280;67706;51.074;-1.796;2023-11-21T02:30:04;101270.59;;;9.46;100.00
78411;BME280;67706;51.074;-1.796;2023-11-21T02:32:32;101279.31;;;9.49;100.00
78411;BME280;67706;51.074;-1.796;2023-11-21T02:34:59;101284.97;;;9.48;100.00
78411;BME280;67706;51.074;-1.796;2023-11-21T02:37:33;101282.56;;;9.45;100.00
78411;BME280;67706;51.074;-1.796;2023-11-21T02:40:00;101287.53;;;9.49;100.00
78411;BME280;67706;51.074;-1.796;2023-11-21T02:42:30;101278.09;;;9.52;100.00
78411;BME280;67706;51.074;-1.796;2023-11-21T02:44:57;101292.13;;;9.49;100.00
78411;BME280;67706;51.074;-1.796;2023-11-21T02:47:23;101296.41;;;9.51;100.00
78411;BME280;67706;51.074;-1.796;2023-11-21T02:49:50;101305.66;;;9.50;100.00
78411;BME280;67706;51.074;-1.796;2023-11-21T02:52:17;101299.66;;;9.55;100.00
78411;BME280;67706;51.074;-1.796;2023-11-21T02:54:44;101295.53;;;9.51;100.00
78411;BME280;67706;51.074;-1.796;2023-11-21T02:57:11;101301.88;;;9.51;100.00
78411;BME280;67706;51.074;-1.796;2023-11-21T02:59:40;101287.16;;;9.52;100.00
78411;BME280;67706;51.074;-1.796;2023-11-21T03:02:06;101300.34;;;9.57;100.00
78411;BME280;67706;51.074;-1.796;2023-11-21T03:04:34;101296.06;;;9.54;100.00
78411;BME280;67706;51.074;-1.796;2023-11-21T03:07:00;101300.28;;;9.65;100.00
78411;BME280;67706;51.074;-1.796;2023-11-21T03:09:27;101294.97;;;9.63;100.00
78411;BME280;67706;51.074;-1.796;2023-11-21T03:11:54;101292.88;;;9.66;100.00
78411;BME280;67706;51.074;-1.796;2023-11-21T03:14:20;101285.38;;;9.68;100.00
78411;BME280;67706;51.074;-1.796;2023-11-21T03:16:48;101291.00;;;9.66;100.00
78411;BME280;67706;51.074;-1.796;2023-11-21T03:19:16;101297.03;;;9.61;100.00
78411;BME280;67706;51.074;-1.796;2023-11-21T03:21:42;101295.81;;;9.64;100.00
78411;BME280;67706;51.074;-1.796;2023-11-21T03:24:09;101302.34;;;9.63;100.00
78411;BME280;67706;51.074;-1.796;2023-11-21T03:26:36;101308.97;;;9.69;100.00
78411;BME280;67706;51.074;-1.796;2023-11-21T03:29:04;101317.53;;;9.66;100.00
78411;BME280;67706;51.074;-1.796;2023-11-21T03:31:31;101314.47;;;9.69;100.00
78411;BME280;67706;51.074;-1.796;2023-11-21T03:33:59;101321.66;;;9.70;100.00
78411;BME280;67706;51.074;-1.796;2023-11-21T03:36:25;101330.91;;;9.69;100.00
78411;BME280;67706;51.074;-1.796;2023-11-21T03:38:52;101334.31;;;9.71;100.00
78411;BME280;67706;51.074;-1.796;2023-11-21T03:41:19;101335.16;;;9.71;100.00
78411;BME280;67706;51.074;-1.796;2023-11-21T03:43:45;101334.69;;;9.68;100.00
78411;BME280;67706;51.074;-1.796;2023-11-21T03:46:12;101350.56;;;9.72;100.00
78411;BME280;67706;51.074;-1.796;2023-11-21T03:48:39;101349.41;;;9.67;100.00
78411;BME280;67706;51.074;-1.796;2023-11-21T03:51:06;101343.72;;;9.68;100.00
78411;BME280;67706;51.074;-1.796;2023-11-21T03:53:33;101348.84;;;9.71;100.00
78411;BME280;67706;51.074;-1.796;2023-11-21T03:56:02;101350.25;;;9.67;100.00
78411;BME280;67706;51.074;-1.796;2023-11-21T03:58:28;101361.34;;;9.74;100.00
78411;BME280;67706;51.074;-1.796;2023-11-21T04:00:55;101361.69;;;9.71;100.00
78411;BME280;67706;51.074;-1.796;2023-11-21T04:03:22;101373.13;;;9.74;100.00
78411;BME280;67706;51.074;-1.796;2023-11-21T04:05:48;101368.34;;;9.76;100.00
78411;BME280;67706;51.074;-1.796;2023-11-21T04:08:16;101359.34;;;9.68;100.00
78411;BME280;67706;51.074;-1.796;2023-11-21T04:10:43;101377.41;;;9.77;100.00
78411;BME280;67706;51.074;-1.796;2023-11-21T04:13:09;101372.84;;;9.69;100.00
78411;BME280;67706;51.074;-1.796;2023-11-21T04:15:36;101370.09;;;9.69;100.00
78411;BME280;67706;51.074;-1.796;2023-11-21T04:18:03;101359.16;;;9.69;100.00
78411;BME280;67706;51.074;-1.796;2023-11-21T04:20:29;101383.44;;;9.72;100.00
78411;BME280;67706;51.074;-1.796;2023-11-21T04:22:56;101386.72;;;9.68;100.00
78411;BME280;67706;51.074;-1.796;2023-11-21T04:25:24;101388.22;;;9.70;100.00
78411;BME280;67706;51.074;-1.796;2023-11-21T04:27:51;101390.81;;;9.72;100.00
78411;BME280;67706;51.074;-1.796;2023-11-21T04:30:18;101393.38;;;9.73;100.00
78411;BME280;67706;51.074;-1.796;2023-11-21T04:32:46;101388.75;;;9.74;100.00
78411;BME280;67706;51.074;-1.796;2023-11-21T04:35:12;101392.03;;;9.69;100.00
78411;BME280;67706;51.074;-1.796;2023-11-21T04:37:40;101398.38;;;9.70;100.00
78411;BME280;67706;51.074;-1.796;2023-11-21T04:40:08;101401.09;;;9.70;100.00
78411;BME280;67706;51.074;-1.796;2023-11-21T04:42:36;101401.78;;;9.72;100.00
78411;BME280;67706;51.074;-1.796;2023-11-21T04:45:04;101406.41;;;9.71;100.00
78411;BME280;67706;51.074;-1.796;2023-11-21T04:47:34;101412.34;;;9.75;100.00
78411;BME280;67706;51.074;-1.796;2023-11-21T04:50:01;101404.19;;;9.67;100.00
78411;BME280;67706;51.074;-1.796;2023-11-21T04:52:28;101422.63;;;9.73;100.00
78411;BME280;67706;51.074;-1.796;2023-11-21T04:54:55;101414.09;;;9.76;100.00
78411;BME280;67706;51.074;-1.796;2023-11-21T04:57:23;101420.09;;;9.71;100.00
78411;BME280;67706;51.074;-1.796;2023-11-21T04:59:51;101427.25;;;9.72;100.00
78411;BME280;67706;51.074;-1.796;2023-11-21T05:02:18;101437.00;;;9.75;100.00
78411;BME280;67706;51.074;-1.796;2023-11-21T05:04:46;101441.81;;;9.73;100.00
78411;BME280;67706;51.074;-1.796;2023-11-21T05:07:13;101455.84;;;9.78;100.00
78411;BME280;67706;51.074;-1.796;2023-11-21T05:09:41;101454.31;;;9.75;100.00
78411;BME280;67706;51.074;-1.796;2023-11-21T05:12:09;101459.59;;;9.77;100.00
78411;BME280;67706;51.074;-1.796;2023-11-21T05:14:38;101458.59;;;9.78;100.00
78411;BME280;67706;51.074;-1.796;2023-11-21T05:17:06;101457.19;;;9.82;100.00
78411;BME280;67706;51.074;-1.796;2023-11-21T05:19:33;101462.34;;;9.77;100.00
78411;BME280;67706;51.074;-1.796;2023-11-21T05:22:01;101466.66;;;9.71;100.00
78411;BME280;67706;51.074;-1.796;2023-11-21T05:24:27;101482.72;;;9.74;100.00
78411;BME280;67706;51.074;-1.796;2023-11-21T05:26:54;101486.34;;;9.75;100.00
78411;BME280;67706;51.074;-1.796;2023-11-21T05:29:21;101495.75;;;9.72;100.00
78411;BME280;67706;51.074;-1.796;2023-11-21T05:31:48;101489.94;;;9.75;100.00
78411;BME280;67706;51.074;-1.796;2023-11-21T05:34:16;101496.28;;;9.76;100.00
78411;BME280;67706;51.074;-1.796;2023-11-21T05:36:43;101493.19;;;9.71;100.00
78411;BME280;67706;51.074;-1.796;2023-11-21T05:39:11;101508.28;;;9.67;100.00
78411;BME280;67706;51.074;-1.796;2023-11-21T05:41:37;101501.59;;;9.69;100.00
78411;BME280;67706;51.074;-1.796;2023-11-21T05:44:04;101509.16;;;9.67;100.00
78411;BME280;67706;51.074;-1.796;2023-11-21T05:46:31;101513.09;;;9.65;100.00
78411;BME280;67706;51.074;-1.796;2023-11-21T05:48:58;101525.22;;;9.70;100.00
78411;BME280;67706;51.074;-1.796;2023-11-21T05:51:26;101524.88;;;9.73;100.00
78411;BME280;67706;51.074;-1.796;2023-11-21T05:53:53;101526.94;;;9.71;100.00
78411;BME280;67706;51.074;-1.796;2023-11-21T05:56:20;101531.75;;;9.69;100.00
78411;BME280;67706;51.074;-1.796;2023-11-21T05:58:46;101536.00;;;9.63;100.00
78411;BME280;67706;51.074;-1.796;2023-11-21T06:01:13;101533.47;;;9.62;100.00
78411;BME280;67706;51.074;-1.796;2023-11-21T06:03:40;101537.75;;;9.65;100.00
78411;BME280;67706;51.074;-1.796;2023-11-21T06:06:07;101542.88;;;9.59;100.00
78411;BME280;67706;51.074;-1.796;2023-11-21T06:08:35;101540.50;;;9.56;100.00
78411;BME280;67706;51.074;-1.796;2023-11-21T06:11:02;101557.25;;;9.53;100.00
78411;BME280;67706;51.074;-1.796;2023-11-21T06:13:29;101562.44;;;9.48;100.00
78411;BME280;67706;51.074;-1.796;2023-11-21T06:15:56;101566.53;;;9.52;100.00
78411;BME280;67706;51.074;-1.796;2023-11-21T06:18:22;101569.44;;;9.35;100.00
78411;BME280;67706;51.074;-1.796;2023-11-21T06:20:49;101565.84;;;9.26;100.00
78411;BME280;67706;51.074;-1.796;2023-11-21T06:23:17;101578.69;;;9.10;100.00
78411;BME280;67706;51.074;-1.796;2023-11-21T06:25:45;101576.63;;;9.04;100.00
78411;BME280;67706;51.074;-1.796;2023-11-21T06:28:12;101588.09;;;8.99;100.00
78411;BME280;67706;51.074;-1.796;2023-11-21T06:30:42;101585.34;;;8.91;100.00
78411;BME280;67706;51.074;-1.796;2023-11-21T06:33:09;101591.00;;;8.90;100.00
78411;BME280;67706;51.074;-1.796;2023-11-21T06:35:36;101586.69;;;8.87;100.00
78411;BME280;67706;51.074;-1.796;2023-11-21T06:38:03;101579.69;;;8.76;100.00
78411;BME280;67706;51.074;-1.796;2023-11-21T06:40:29;101595.22;;;8.84;100.00
78411;BME280;67706;51.074;-1.796;2023-11-21T06:42:58;101593.03;;;8.79;100.00
78411;BME280;67706;51.074;-1.796;2023-11-21T06:45:26;101584.63;;;8.73;100.00
78411;BME280;67706;51.074;-1.796;2023-11-21T06:47:53;101598.66;;;8.78;100.00
78411;BME280;67706;51.074;-1.796;2023-11-21T06:50:19;101606.53;;;8.81;100.00
78411;BME280;67706;51.074;-1.796;2023-11-21T06:52:46;101607.53;;;8.80;100.00
78411;BME280;67706;51.074;-1.796;2023-11-21T06:55:14;101613.88;;;8.80;100.00
78411;BME280;67706;51.074;-1.796;2023-11-21T06:57:41;101630.47;;;8.79;100.00
78411;BME280;67706;51.074;-1.796;2023-11-21T07:00:10;101628.59;;;8.79;100.00
78411;BME280;67706;51.074;-1.796;2023-11-21T07:02:37;101627.91;;;8.77;100.00
78411;BME280;67706;51.074;-1.796;2023-11-21T07:05:05;101635.94;;;8.87;100.00
78411;BME280;67706;51.074;-1.796;2023-11-21T07:07:32;101646.38;;;8.84;100.00
78411;BME280;67706;51.074;-1.796;2023-11-21T07:10:00;101656.81;;;8.88;100.00
78411;BME280;67706;51.074;-1.796;2023-11-21T07:12:28;101665.00;;;8.88;100.00
78411;BME280;67706;51.074;-1.796;2023-11-21T07:14:55;101657.16;;;8.85;100.00
78411;BME280;67706;51.074;-1.796;2023-11-21T07:17:23;101662.81;;;8.84;100.00
78411;BME280;67706;51.074;-1.796;2023-11-21T07:19:50;101682.28;;;8.80;100.00
78411;BME280;67706;51.074;-1.796;2023-11-21T07:22:16;101681.75;;;8.77;100.00
78411;BME280;67706;51.074;-1.796;2023-11-21T07:24:48;101686.53;;;8.75;100.00
78411;BME280;67706;51.074;-1.796;2023-11-21T07:27:15;101692.69;;;8.77;100.00
78411;BME280;67706;51.074;-1.796;2023-11-21T07:29:41;101705.81;;;8.73;100.00
78411;BME280;67706;51.074;-1.796;2023-11-21T07:32:08;101712.16;;;8.74;100.00
78411;BME280;67706;51.074;-1.796;2023-11-21T07:34:37;101698.31;;;8.75;100.00
78411;BME280;67706;51.074;-1.796;2023-11-21T07:37:03;101701.22;;;8.74;100.00
78411;BME280;67706;51.074;-1.796;2023-11-21T07:39:30;101714.25;;;8.80;100.00
78411;BME280;67706;51.074;-1.796;2023-11-21T07:41:57;101718.31;;;8.76;100.00
78411;BME280;67706;51.074;-1.796;2023-11-21T07:44:23;101722.44;;;8.80;100.00
78411;BME280;67706;51.074;-1.796;2023-11-21T07:46:51;101726.22;;;8.79;100.00
78411;BME280;67706;51.074;-1.796;2023-11-21T07:49:18;101736.47;;;8.77;100.00
78411;BME280;67706;51.074;-1.796;2023-11-21T07:51:47;101730.66;;;8.80;100.00
78411;BME280;67706;51.074;-1.796;2023-11-21T07:54:14;101745.03;;;8.82;100.00
78411;BME280;67706;51.074;-1.796;2023-11-21T07:56:41;101742.66;;;8.87;100.00
78411;BME280;67706;51.074;-1.796;2023-11-21T07:59:07;101746.25;;;8.88;100.00
78411;BME280;67706;51.074;-1.796;2023-11-21T08:01:34;101740.78;;;8.88;100.00
78411;BME280;67706;51.074;-1.796;2023-11-21T08:04:01;101743.53;;;8.88;100.00
78411;BME280;67706;51.074;-1.796;2023-11-21T08:06:28;101745.91;;;8.91;100.00
78411;BME280;67706;51.074;-1.796;2023-11-21T08:08:57;101741.28;;;8.83;100.00
78411;BME280;67706;51.074;-1.796;2023-11-21T08:11:24;101757.03;;;8.89;100.00
78411;BME280;67706;51.074;-1.796;2023-11-21T08:13:51;101755.16;;;8.90;100.00
78411;BME280;67706;51.074;-1.796;2023-11-21T08:16:18;101767.81;;;8.91;100.00
78411;BME280;67706;51.074;-1.796;2023-11-21T08:18:45;101770.53;;;8.91;100.00
78411;BME280;67706;51.074;-1.796;2023-11-21T08:21:12;101777.75;;;8.92;100.00
78411;BME280;67706;51.074;-1.796;2023-11-21T08:23:39;101779.31;;;8.94;100.00
78411;BME280;67706;51.074;-1.796;2023-11-21T08:26:07;101776.22;;;8.97;100.00
78411;BME280;67706;51.074;-1.796;2023-11-21T08:28:34;101779.47;;;9.01;100.00
78411;BME280;67706;51.074;-1.796;2023-11-21T08:31:01;101784.63;;;9.04;100.00
78411;BME280;67706;51.074;-1.796;2023-11-21T08:33:28;101781.69;;;8.97;100.00
78411;BME280;67706;51.074;-1.796;2023-11-21T08:35:54;101770.72;;;8.89;100.00
78411;BME280;67706;51.074;-1.796;2023-11-21T08:38:21;101785.81;;;9.01;100.00
78411;BME280;67706;51.074;-1.796;2023-11-21T08:40:48;101793.00;;;9.02;100.00
78411;BME280;67706;51.074;-1.796;2023-11-21T08:43:16;101795.75;;;9.02;100.00
78411;BME280;67706;51.074;-1.796;2023-11-21T08:45:45;101796.75;;;9.01;100.00
78411;BME280;67706;51.074;-1.796;2023-11-21T08:48:12;101810.63;;;9.00;100.00
78411;BME280;67706;51.074;-1.796;2023-11-21T08:50:38;101808.41;;;9.03;100.00
78411;BME280;67706;51.074;-1.796;2023-11-21T08:53:05;101819.03;;;9.06;100.00
78411;BME280;67706;51.074;-1.796;2023-11-21T08:55:32;101810.81;;;9.06;100.00
78411;BME280;67706;51.074;-1.796;2023-11-21T08:58:02;101819.19;;;9.05;100.00
78411;BME280;67706;51.074;-1.796;2023-11-21T09:00:32;101822.06;;;9.03;100.00
78411;BME280;67706;51.074;-1.796;2023-11-21T09:02:58;101832.19;;;9.03;100.00
78411;BME280;67706;51.074;-1.796;2023-11-21T09:05:25;101827.06;;;9.08;100.00
78411;BME280;67706;51.074;-1.796;2023-11-21T09:07:52;101825.84;;;9.02;100.00
78411;BME280;67706;51.074;-1.796;2023-11-21T09:10:18;101823.59;;;8.98;100.00
78411;BME280;67706;51.074;-1.796;2023-11-21T09:12:46;101827.91;;;9.00;100.00
78411;BME280;67706;51.074;-1.796;2023-11-21T09:15:12;101825.00;;;9.02;100.00
78411;BME280;67706;51.074;-1.796;2023-11-21T09:17:41;101835.94;;;9.02;100.00
78411;BME280;67706;51.074;-1.796;2023-11-21T09:20:09;101828.22;;;8.97;100.00
78411;BME280;67706;51.074;-1.796;2023-11-21T09:22:36;101837.28;;;8.98;100.00
78411;BME280;67706;51.074;-1.796;2023-11-21T09:25:04;101843.28;;;9.01;100.00
78411;BME280;67706;51.074;-1.796;2023-11-21T09:27:32;101849.63;;;9.02;100.00
78411;BME280;67706;51.074;-1.796;2023-11-21T09:29:59;101846.03;;;9.01;100.00
78411;BME280;67706;51.074;-1.796;2023-11-21T09:32:26;101851.63;;;8.92;100.00
78411;BME280;67706;51.074;-1.796;2023-11-21T09:34:54;101866.06;;;9.10;100.00
78411;BME280;67706;51.074;-1.796;2023-11-21T09:37:23;101860.09;;;9.06;100.00
78411;BME280;67706;51.074;-1.796;2023-11-21T09:39:52;101869.31;;;9.05;100.00
78411;BME280;67706;51.074;-1.796;2023-11-21T09:42:23;101875.47;;;9.07;100.00
78411;BME280;67706;51.074;-1.796;2023-11-21T09:44:58;101877.38;;;9.07;100.00
78411;BME280;67706;51.074;-1.796;2023-11-21T09:47:27;101886.59;;;9.06;100.00
78411;BME280;67706;51.074;-1.796;2023-11-21T09:49:56;101888.81;;;9.02;100.00
78411;BME280;67706;51.074;-1.796;2023-11-21T09:52:27;101887.63;;;9.05;100.00
78411;BME280;67706;51.074;-1.796;2023-11-21T09:54:55;101886.28;;;9.09;100.00
78411;BME280;67706;51.074;-1.796;2023-11-21T09:57:24;101889.50;;;9.04;100.00
78411;BME280;67706;51.074;-1.796;2023-11-21T09:59:52;101893.28;;;9.11;100.00
78411;BME280;67706;51.074;-1.796;2023-11-21T10:02:22;101896.78;;;9.21;100.00
78411;BME280;67706;51.074;-1.796;2023-11-21T10:04:51;101902.56;;;9.18;100.00
78411;BME280;67706;51.074;-1.796;2023-11-21T10:07:20;101907.19;;;9.18;100.00
78411;BME280;67706;51.074;-1.796;2023-11-21T10:09:47;101885.72;;;9.05;100.00
78411;BME280;67706;51.074;-1.796;2023-11-21T10:12:17;101907.66;;;9.13;100.00
78411;BME280;67706;51.074;-1.796;2023-11-21T10:14:48;101914.47;;;9.09;100.00
78411;BME280;67706;51.074;-1.796;2023-11-21T10:17:15;101915.88;;;9.13;100.00
78411;BME280;67706;51.074;-1.796;2023-11-21T10:19:46;101910.41;;;9.13;100.00
78411;BME280;67706;51.074;-1.796;2023-11-21T10:22:13;101917.59;;;9.14;100.00
78411;BME280;67706;51.074;-1.796;2023-11-21T10:24:43;101918.78;;;9.12;100.00
78411;BME280;67706;51.074;-1.796;2023-11-21T10:27:10;101925.13;;;9.12;100.00
78411;BME280;67706;51.074;-1.796;2023-11-21T10:29:36;101916.75;;;9.14;100.00
78411;BME280;67706;51.074;-1.796;2023-11-21T10:32:04;101916.03;;;9.12;100.00
78411;BME280;67706;51.074;-1.796;2023-11-21T10:34:31;101925.81;;;9.14;100.00
78411;BME280;67706;51.074;-1.796;2023-11-21T10:36:58;101923.78;;;9.16;100.00
78411;BME280;67706;51.074;-1.796;2023-11-21T10:39:25;101914.19;;;9.12;100.00
78411;BME280;67706;51.074;-1.796;2023-11-21T10:41:57;101928.25;;;9.17;100.00
78411;BME280;67706;51.074;-1.796;2023-11-21T10:44:24;101918.13;;;9.18;100.00
78411;BME280;67706;51.074;-1.796;2023-11-21T10:46:52;101922.25;;;9.22;100.00
78411;BME280;67706;51.074;-1.796;2023-11-21T10:49:21;101915.78;;;9.23;100.00
78411;BME280;67706;51.074;-1.796;2023-11-21T10:51:50;101918.69;;;9.21;100.00
78411;BME280;67706;51.074;-1.796;2023-11-21T10:54:19;101919.66;;;9.12;100.00
78411;BME280;67706;51.074;-1.796;2023-11-21T10:56:48;101926.81;;;9.13;100.00
78411;BME280;67706;51.074;-1.796;2023-11-21T10:59:18;101929.50;;;9.05;100.00
78411;BME280;67706;51.074;-1.796;2023-11-21T11:01:47;101928.69;;;9.05;100.00
78411;BME280;67706;51.074;-1.796;2023-11-21T11:04:18;101932.16;;;9.15;100.00
78411;BME280;67706;51.074;-1.796;2023-11-21T11:06:45;101929.72;;;9.12;100.00
78411;BME280;67706;51.074;-1.796;2023-11-21T11:09:17;101931.97;;;9.16;100.00
78411;BME280;67706;51.074;-1.796;2023-11-21T11:11:43;101930.06;;;9.09;100.00
78411;BME280;67706;51.074;-1.796;2023-11-21T11:14:11;101928.34;;;9.08;100.00
78411;BME280;67706;51.074;-1.796;2023-11-21T11:16:40;101934.84;;;9.07;100.00
78411;BME280;67706;51.074;-1.796;2023-11-21T11:19:08;101937.63;;;9.15;100.00
78411;BME280;67706;51.074;-1.796;2023-11-21T11:21:46;101931.91;;;9.00;100.00
78411;BME280;67706;51.074;-1.796;2023-11-21T11:24:41;101930.91;;;9.09;100.00
78411;BME280;67706;51.074;-1.796;2023-11-21T11:27:23;101931.25;;;9.06;100.00
78411;BME280;67706;51.074;-1.796;2023-11-21T11:30:02;101938.81;;;9.12;100.00
78411;BME280;67706;51.074;-1.796;2023-11-21T11:32:43;101930.91;;;9.09;100.00
78411;BME280;67706;51.074;-1.796;2023-11-21T11:35:19;101934.56;;;9.18;100.00
78411;BME280;67706;51.074;-1.796;2023-11-21T11:37:50;101928.06;;;9.19;100.00
78411;BME280;67706;51.074;-1.796;2023-11-21T11:40:16;101930.31;;;9.23;100.00
78411;BME280;67706;51.074;-1.796;2023-11-21T11:42:56;101929.06;;;9.18;100.00
78411;BME280;67706;51.074;-1.796;2023-11-21T11:45:25;101931.34;;;9.22;100.00
78411;BME280;67706;51.074;-1.796;2023-11-21T11:48:01;101945.72;;;9.24;100.00
78411;BME280;67706;51.074;-1.796;2023-11-21T11:50:29;101939.50;;;9.14;100.00
78411;BME280;67706;51.074;-1.796;2023-11-21T11:53:12;101949.94;;;9.11;100.00
78411;BME280;67706;51.074;-1.796;2023-11-21T11:55:39;101937.47;;;9.16;100.00
78411;BME280;67706;51.074;-1.796;2023-11-21T11:58:06;101941.09;;;9.25;100.00
78411;BME280;67706;51.074;-1.796;2023-11-21T12:00:34;101945.97;;;9.39;100.00
78411;BME280;67706;51.074;-1.796;2023-11-21T12:03:06;101941.16;;;9.33;100.00
78411;BME280;67706;51.074;-1.796;2023-11-21T12:05:35;101941.31;;;9.31;100.00
78411;BME280;67706;51.074;-1.796;2023-11-21T12:08:05;101949.78;;;9.46;100.00
78411;BME280;67706;51.074;-1.796;2023-11-21T12:10:33;101947.03;;;9.46;100.00
78411;BME280;67706;51.074;-1.796;2023-11-21T12:13:02;101957.16;;;9.53;100.00
78411;BME280;67706;51.074;-1.796;2023-11-21T12:15:31;101957.56;;;9.67;100.00
78411;BME280;67706;51.074;-1.796;2023-11-21T12:17:58;101962.41;;;9.73;100.00
78411;BME280;67706;51.074;-1.796;2023-11-21T12:20:27;101960.31;;;9.67;100.00
78411;BME280;67706;51.074;-1.796;2023-11-21T12:22:55;101965.78;;;9.67;100.00
78411;BME280;67706;51.074;-1.796;2023-11-21T12:25:23;101960.81;;;9.62;100.00
78411;BME280;67706;51.074;-1.796;2023-11-21T12:27:51;101965.31;;;9.71;100.00
78411;BME280;67706;51.074;-1.796;2023-11-21T12:30:19;101962.19;;;9.66;100.00
78411;BME280;67706;51.074;-1.796;2023-11-21T12:32:49;101972.28;;;9.66;100.00
78411;BME280;67706;51.074;-1.796;2023-11-21T12:35:17;101971.97;;;9.69;100.00
78411;BME280;67706;51.074;-1.796;2023-11-21T12:37:46;101973.53;;;9.71;100.00
78411;BME280;67706;51.074;-1.796;2023-11-21T12:40:14;101972.00;;;9.77;100.00
78411;BME280;67706;51.074;-1.796;2023-11-21T12:42:43;101988.78;;;9.74;100.00